sensor_id;sensor_type;location;lat;lon;timestamp;P1;durP1;ratioP1;P2;durP2;ratioP2
76053;SDS011;64752;48.870;9.082;2022-12-24T00:00:26;7.93;;;1.83;;
76053;SDS011;64752;48.870;9.082;2022-12-24T00:02:53;10.95;;;2.50;;
76053;SDS011;64752;48.870;9.082;2022-12-24T00:05:18;12.70;;;2.10;;
76053;SDS011;64752;48.870;9.082;2022-12-24T00:07:44;9.50;;;1.70;;
76053;SDS011;64752;48.870;9.082;2022-12-24T00:10:09;8.53;;;2.00;;
76053;SDS011;64752;48.870;9.082;2022-12-24T00:12:35;7.00;;;2.00;;
76053;SDS011;64752;48.870;9.082;2022-12-24T00:15:01;9.60;;;2.47;;
76053;SDS011;64752;48.870;9.082;2022-12-24T00:17:27;10.35;;;2.08;;
76053;SDS011;64752;48.870;9.082;2022-12-24T00:19:52;4.60;;;1.50;;
76053;SDS011;64752;48.870;9.082;2022-12-24T00:22:17;10.75;;;2.13;;
76053;SDS011;64752;48.870;9.082;2022-12-24T00:24:43;12.10;;;2.20;;
76053;SDS011;64752;48.870;9.082;2022-12-24T00:27:08;10.10;;;2.80;;
76053;SDS011;64752;48.870;9.082;2022-12-24T00:29:35;9.63;;;2.00;;
76053;SDS011;64752;48.870;9.082;2022-12-24T00:34:26;5.65;;;1.88;;
76053;SDS011;64752;48.870;9.082;2022-12-24T00:36:51;10.65;;;2.20;;
76053;SDS011;64752;48.870;9.082;2022-12-24T00:39:17;5.13;;;1.83;;
76053;SDS011;64752;48.870;9.082;2022-12-24T00:41:42;10.10;;;2.00;;
76053;SDS011;64752;48.870;9.082;2022-12-24T00:44:08;11.23;;;2.67;;
76053;SDS011;64752;48.870;9.082;2022-12-24T00:46:34;8.23;;;2.20;;
76053;SDS011;64752;48.870;9.082;2022-12-24T00:49:02;8.85;;;2.38;;
76053;SDS011;64752;48.870;9.082;2022-12-24T00:51:28;8.13;;;1.80;;
76053;SDS011;64752;48.870;9.082;2022-12-24T00:53:54;12.67;;;2.20;;
76053;SDS011;64752;48.870;9.082;2022-12-24T00:56:19;10.48;;;1.98;;
76053;SDS011;64752;48.870;9.082;2022-12-24T00:58:45;8.97;;;2.13;;
76053;SDS011;64752;48.870;9.082;2022-12-24T01:01:11;7.47;;;2.10;;
76053;SDS011;64752;48.870;9.082;2022-12-24T01:03:37;12.80;;;2.40;;
76053;SDS011;64752;48.870;9.082;2022-12-24T01:06:05;8.57;;;2.15;;
76053;SDS011;64752;48.870;9.082;2022-12-24T01:08:33;8.77;;;1.90;;
76053;SDS011;64752;48.870;9.082;2022-12-24T01:10:59;11.88;;;2.58;;
76053;SDS011;64752;48.870;9.082;2022-12-24T01:13:25;8.95;;;2.33;;
76053;SDS011;64752;48.870;9.082;2022-12-24T01:15:51;12.50;;;2.83;;
76053;SDS011;64752;48.870;9.082;2022-12-24T01:18:16;13.13;;;2.78;;
76053;SDS011;64752;48.870;9.082;2022-12-24T01:20:42;11.33;;;2.53;;
76053;SDS011;64752;48.870;9.082;2022-12-24T01:23:19;14.18;;;3.15;;
76053;SDS011;64752;48.870;9.082;2022-12-24T01:25:45;15.75;;;2.85;;
76053;SDS011;64752;48.870;9.082;2022-12-24T01:28:10;14.93;;;2.90;;
76053;SDS011;64752;48.870;9.082;2022-12-24T01:30:39;13.60;;;2.43;;
76053;SDS011;64752;48.870;9.082;2022-12-24T01:33:10;13.88;;;2.75;;
76053;SDS011;64752;48.870;9.082;2022-12-24T01:38:12;15.98;;;3.13;;
76053;SDS011;64752;48.870;9.082;2022-12-24T01:40:41;12.32;;;2.95;;
76053;SDS011;64752;48.870;9.082;2022-12-24T01:43:26;18.05;;;3.22;;
76053;SDS011;64752;48.870;9.082;2022-12-24T01:45:58;14.00;;;2.47;;
76053;SDS011;64752;48.870;9.082;2022-12-24T01:51:07;10.52;;;2.35;;
76053;SDS011;64752;48.870;9.082;2022-12-24T01:53:54;13.48;;;2.60;;
76053;SDS011;64752;48.870;9.082;2022-12-24T01:56:24;12.07;;;2.92;;
76053;SDS011;64752;48.870;9.082;2022-12-24T01:58:52;14.98;;;3.08;;
76053;SDS011;64752;48.870;9.082;2022-12-24T02:01:22;15.93;;;3.03;;
76053;SDS011;64752;48.870;9.082;2022-12-24T02:03:48;15.77;;;2.92;;
76053;SDS011;64752;48.870;9.082;2022-12-24T02:06:14;11.90;;;2.73;;
76053;SDS011;64752;48.870;9.082;2022-12-24T02:08:42;13.30;;;2.40;;
76053;SDS011;64752;48.870;9.082;2022-12-24T02:11:12;14.97;;;2.73;;
76053;SDS011;64752;48.870;9.082;2022-12-24T02:13:44;14.63;;;3.33;;
76053;SDS011;64752;48.870;9.082;2022-12-24T02:21:47;16.42;;;3.13;;
76053;SDS011;64752;48.870;9.082;2022-12-24T02:29:50;10.68;;;2.50;;
76053;SDS011;64752;48.870;9.082;2022-12-24T02:32:47;10.65;;;2.25;;
76053;SDS011;64752;48.870;9.082;2022-12-24T02:38:02;20.75;;;3.05;;
76053;SDS011;64752;48.870;9.082;2022-12-24T02:40:51;13.73;;;2.83;;
76053;SDS011;64752;48.870;9.082;2022-12-24T02:43:22;18.02;;;3.80;;
76053;SDS011;64752;48.870;9.082;2022-12-24T02:45:52;17.55;;;3.05;;
76053;SDS011;64752;48.870;9.082;2022-12-24T02:48:22;18.10;;;3.17;;
76053;SDS011;64752;48.870;9.082;2022-12-24T02:50:53;15.10;;;2.75;;
76053;SDS011;64752;48.870;9.082;2022-12-24T02:53:23;15.02;;;2.85;;
76053;SDS011;64752;48.870;9.082;2022-12-24T03:07:28;13.13;;;2.97;;
76053;SDS011;64752;48.870;9.082;2022-12-24T03:10:17;12.82;;;3.20;;
76053;SDS011;64752;48.870;9.082;2022-12-24T03:12:51;18.65;;;3.45;;
76053;SDS011;64752;48.870;9.082;2022-12-24T03:15:22;17.92;;;3.40;;
76053;SDS011;64752;48.870;9.082;2022-12-24T03:17:50;14.80;;;3.20;;
76053;SDS011;64752;48.870;9.082;2022-12-24T03:20:20;12.10;;;3.13;;
76053;SDS011;64752;48.870;9.082;2022-12-24T03:22:49;14.57;;;3.13;;
76053;SDS011;64752;48.870;9.082;2022-12-24T03:25:15;11.68;;;2.53;;
76053;SDS011;64752;48.870;9.082;2022-12-24T03:27:40;15.53;;;3.40;;
76053;SDS011;64752;48.870;9.082;2022-12-24T03:30:08;16.20;;;3.22;;
76053;SDS011;64752;48.870;9.082;2022-12-24T03:32:37;11.77;;;3.00;;
76053;SDS011;64752;48.870;9.082;2022-12-24T03:35:02;21.08;;;3.13;;
76053;SDS011;64752;48.870;9.082;2022-12-24T03:37:28;12.73;;;2.85;;
76053;SDS011;64752;48.870;9.082;2022-12-24T03:39:54;17.00;;;3.58;;
76053;SDS011;64752;48.870;9.082;2022-12-24T03:42:19;15.60;;;3.57;;
76053;SDS011;64752;48.870;9.082;2022-12-24T03:44:44;12.85;;;2.63;;
76053;SDS011;64752;48.870;9.082;2022-12-24T03:47:10;14.23;;;3.08;;
76053;SDS011;64752;48.870;9.082;2022-12-24T03:49:35;10.90;;;3.13;;
76053;SDS011;64752;48.870;9.082;2022-12-24T03:52:00;15.57;;;3.10;;
76053;SDS011;64752;48.870;9.082;2022-12-24T03:54:26;13.17;;;3.47;;
76053;SDS011;64752;48.870;9.082;2022-12-24T03:56:51;20.63;;;3.95;;
76053;SDS011;64752;48.870;9.082;2022-12-24T03:59:17;18.67;;;3.63;;
76053;SDS011;64752;48.870;9.082;2022-12-24T04:01:42;15.48;;;3.28;;
76053;SDS011;64752;48.870;9.082;2022-12-24T04:04:08;16.38;;;3.38;;
76053;SDS011;64752;48.870;9.082;2022-12-24T04:06:33;13.52;;;3.55;;
76053;SDS011;64752;48.870;9.082;2022-12-24T04:08:58;13.50;;;3.03;;
76053;SDS011;64752;48.870;9.082;2022-12-24T04:11:28;16.08;;;3.42;;
76053;SDS011;64752;48.870;9.082;2022-12-24T04:13:55;14.32;;;2.80;;
76053;SDS011;64752;48.870;9.082;2022-12-24T04:16:20;14.77;;;3.80;;
76053;SDS011;64752;48.870;9.082;2022-12-24T04:18:48;20.37;;;3.57;;
76053;SDS011;64752;48.870;9.082;2022-12-24T04:21:14;17.45;;;3.60;;
76053;SDS011;64752;48.870;9.082;2022-12-24T04:23:40;15.57;;;3.20;;
76053;SDS011;64752;48.870;9.082;2022-12-24T04:27:03;16.95;;;3.47;;
76053;SDS011;64752;48.870;9.082;2022-12-24T04:33:33;18.00;;;2.85;;
76053;SDS011;64752;48.870;9.082;2022-12-24T04:42:12;16.88;;;2.88;;
76053;SDS011;64752;48.870;9.082;2022-12-24T04:44:40;14.75;;;3.70;;
76053;SDS011;64752;48.870;9.082;2022-12-24T04:47:06;12.48;;;2.80;;
76053;SDS011;64752;48.870;9.082;2022-12-24T04:49:31;11.88;;;3.10;;
76053;SDS011;64752;48.870;9.082;2022-12-24T04:51:57;22.15;;;3.92;;
76053;SDS011;64752;48.870;9.082;2022-12-24T04:54:22;16.77;;;3.67;;
76053;SDS011;64752;48.870;9.082;2022-12-24T04:56:48;16.15;;;3.60;;
76053;SDS011;64752;48.870;9.082;2022-12-24T04:59:13;20.10;;;4.00;;
76053;SDS011;64752;48.870;9.082;2022-12-24T05:01:39;16.90;;;3.10;;
76053;SDS011;64752;48.870;9.082;2022-12-24T05:04:07;18.90;;;3.47;;
76053;SDS011;64752;48.870;9.082;2022-12-24T05:06:33;18.20;;;3.70;;
76053;SDS011;64752;48.870;9.082;2022-12-24T05:08:59;17.45;;;3.53;;
76053;SDS011;64752;48.870;9.082;2022-12-24T05:11:28;16.70;;;3.60;;
76053;SDS011;64752;48.870;9.082;2022-12-24T05:13:54;22.65;;;3.80;;
76053;SDS011;64752;48.870;9.082;2022-12-24T05:16:21;28.10;;;4.13;;
76053;SDS011;64752;48.870;9.082;2022-12-24T05:18:50;18.50;;;3.10;;
76053;SDS011;64752;48.870;9.082;2022-12-24T05:21:21;18.70;;;3.25;;
76053;SDS011;64752;48.870;9.082;2022-12-24T05:23:53;16.70;;;3.60;;
76053;SDS011;64752;48.870;9.082;2022-12-24T05:29:06;19.73;;;3.35;;
76053;SDS011;64752;48.870;9.082;2022-12-24T05:31:35;15.45;;;2.47;;
76053;SDS011;64752;48.870;9.082;2022-12-24T05:34:10;13.50;;;2.78;;
76053;SDS011;64752;48.870;9.082;2022-12-24T05:36:37;14.55;;;3.05;;
76053;SDS011;64752;48.870;9.082;2022-12-24T05:39:05;16.20;;;3.10;;
76053;SDS011;64752;48.870;9.082;2022-12-24T05:41:31;13.55;;;3.28;;
76053;SDS011;64752;48.870;9.082;2022-12-24T05:43:57;14.47;;;2.90;;
76053;SDS011;64752;48.870;9.082;2022-12-24T05:46:28;10.98;;;2.65;;
76053;SDS011;64752;48.870;9.082;2022-12-24T05:49:35;15.07;;;2.97;;
76053;SDS011;64752;48.870;9.082;2022-12-24T05:52:01;15.57;;;2.90;;
76053;SDS011;64752;48.870;9.082;2022-12-24T05:54:35;20.75;;;3.80;;
76053;SDS011;64752;48.870;9.082;2022-12-24T05:57:12;15.20;;;2.95;;
76053;SDS011;64752;48.870;9.082;2022-12-24T05:59:37;14.23;;;3.33;;
76053;SDS011;64752;48.870;9.082;2022-12-24T06:02:05;18.50;;;3.58;;
76053;SDS011;64752;48.870;9.082;2022-12-24T06:04:31;12.23;;;3.53;;
76053;SDS011;64752;48.870;9.082;2022-12-24T06:09:24;14.13;;;2.97;;
76053;SDS011;64752;48.870;9.082;2022-12-24T06:11:49;14.13;;;3.03;;
76053;SDS011;64752;48.870;9.082;2022-12-24T06:14:15;12.77;;;2.65;;
76053;SDS011;64752;48.870;9.082;2022-12-24T06:16:40;18.63;;;3.70;;
76053;SDS011;64752;48.870;9.082;2022-12-24T06:19:05;14.57;;;3.37;;
76053;SDS011;64752;48.870;9.082;2022-12-24T06:21:30;16.80;;;3.03;;
76053;SDS011;64752;48.870;9.082;2022-12-24T06:23:56;13.60;;;3.13;;
76053;SDS011;64752;48.870;9.082;2022-12-24T06:26:21;19.02;;;6.75;;
76053;SDS011;64752;48.870;9.082;2022-12-24T06:28:47;16.15;;;4.15;;
76053;SDS011;64752;48.870;9.082;2022-12-24T06:31:15;15.73;;;3.13;;
76053;SDS011;64752;48.870;9.082;2022-12-24T06:33:42;16.88;;;3.13;;
76053;SDS011;64752;48.870;9.082;2022-12-24T06:36:08;17.55;;;3.67;;
76053;SDS011;64752;48.870;9.082;2022-12-24T06:38:37;18.10;;;4.28;;
76053;SDS011;64752;48.870;9.082;2022-12-24T06:41:06;16.10;;;5.55;;
76053;SDS011;64752;48.870;9.082;2022-12-24T06:43:32;16.77;;;4.53;;
76053;SDS011;64752;48.870;9.082;2022-12-24T06:46:01;21.50;;;4.32;;
76053;SDS011;64752;48.870;9.082;2022-12-24T06:48:27;15.32;;;3.03;;
76053;SDS011;64752;48.870;9.082;2022-12-24T06:50:52;14.18;;;2.67;;
76053;SDS011;64752;48.870;9.082;2022-12-24T06:53:18;26.52;;;4.00;;
76053;SDS011;64752;48.870;9.082;2022-12-24T06:55:43;16.75;;;3.85;;
76053;SDS011;64752;48.870;9.082;2022-12-24T06:58:09;15.05;;;2.97;;
76053;SDS011;64752;48.870;9.082;2022-12-24T07:00:34;14.40;;;2.97;;
76053;SDS011;64752;48.870;9.082;2022-12-24T07:03:00;9.88;;;2.55;;
76053;SDS011;64752;48.870;9.082;2022-12-24T07:05:25;17.83;;;3.38;;
76053;SDS011;64752;48.870;9.082;2022-12-24T07:07:51;16.70;;;2.70;;
76053;SDS011;64752;48.870;9.082;2022-12-24T07:10:17;19.30;;;3.35;;
76053;SDS011;64752;48.870;9.082;2022-12-24T07:12:44;11.88;;;3.35;;
76053;SDS011;64752;48.870;9.082;2022-12-24T07:15:10;10.95;;;2.80;;
76053;SDS011;64752;48.870;9.082;2022-12-24T07:17:37;10.82;;;2.67;;
76053;SDS011;64752;48.870;9.082;2022-12-24T07:20:03;13.35;;;3.55;;
76053;SDS011;64752;48.870;9.082;2022-12-24T07:22:32;14.52;;;2.80;;
76053;SDS011;64752;48.870;9.082;2022-12-24T07:24:57;15.70;;;2.72;;
76053;SDS011;64752;48.870;9.082;2022-12-24T07:27:23;14.38;;;2.78;;
76053;SDS011;64752;48.870;9.082;2022-12-24T07:29:48;15.20;;;3.40;;
76053;SDS011;64752;48.870;9.082;2022-12-24T07:32:13;12.60;;;2.92;;
76053;SDS011;64752;48.870;9.082;2022-12-24T07:34:39;16.83;;;3.43;;
76053;SDS011;64752;48.870;9.082;2022-12-24T07:37:05;15.73;;;3.60;;
76053;SDS011;64752;48.870;9.082;2022-12-24T07:39:30;14.67;;;4.10;;
76053;SDS011;64752;48.870;9.082;2022-12-24T07:41:58;14.18;;;3.17;;
76053;SDS011;64752;48.870;9.082;2022-12-24T07:44:23;16.33;;;3.90;;
76053;SDS011;64752;48.870;9.082;2022-12-24T07:46:49;20.53;;;3.83;;
76053;SDS011;64752;48.870;9.082;2022-12-24T07:49:15;14.87;;;3.57;;
76053;SDS011;64752;48.870;9.082;2022-12-24T07:51:40;14.02;;;3.17;;
76053;SDS011;64752;48.870;9.082;2022-12-24T07:54:05;10.95;;;2.85;;
76053;SDS011;64752;48.870;9.082;2022-12-24T07:56:31;11.35;;;2.88;;
76053;SDS011;64752;48.870;9.082;2022-12-24T07:58:57;15.93;;;3.63;;
76053;SDS011;64752;48.870;9.082;2022-12-24T08:01:22;10.65;;;3.22;;
76053;SDS011;64752;48.870;9.082;2022-12-24T08:03:47;11.53;;;2.73;;
76053;SDS011;64752;48.870;9.082;2022-12-24T08:06:15;19.65;;;3.72;;
76053;SDS011;64752;48.870;9.082;2022-12-24T08:08:40;16.00;;;4.00;;
76053;SDS011;64752;48.870;9.082;2022-12-24T08:11:06;12.83;;;3.40;;
76053;SDS011;64752;48.870;9.082;2022-12-24T08:13:31;15.15;;;3.55;;
76053;SDS011;64752;48.870;9.082;2022-12-24T08:15:57;13.18;;;3.33;;
76053;SDS011;64752;48.870;9.082;2022-12-24T08:18:23;14.70;;;2.95;;
76053;SDS011;64752;48.870;9.082;2022-12-24T08:20:49;13.40;;;3.30;;
76053;SDS011;64752;48.870;9.082;2022-12-24T08:23:15;15.02;;;3.47;;
76053;SDS011;64752;48.870;9.082;2022-12-24T08:25:41;10.82;;;3.30;;
76053;SDS011;64752;48.870;9.082;2022-12-24T08:28:08;12.13;;;2.90;;
76053;SDS011;64752;48.870;9.082;2022-12-24T08:30:33;11.88;;;2.78;;
76053;SDS011;64752;48.870;9.082;2022-12-24T08:32:59;13.73;;;3.03;;
76053;SDS011;64752;48.870;9.082;2022-12-24T08:35:24;20.40;;;3.10;;
76053;SDS011;64752;48.870;9.082;2022-12-24T08:37:49;13.93;;;3.70;;
76053;SDS011;64752;48.870;9.082;2022-12-24T08:40:15;14.17;;;4.30;;
76053;SDS011;64752;48.870;9.082;2022-12-24T08:42:40;17.13;;;3.70;;
76053;SDS011;64752;48.870;9.082;2022-12-24T08:45:06;15.25;;;3.83;;
76053;SDS011;64752;48.870;9.082;2022-12-24T08:47:32;14.50;;;3.60;;
76053;SDS011;64752;48.870;9.082;2022-12-24T08:49:57;11.32;;;3.40;;
76053;SDS011;64752;48.870;9.082;2022-12-24T08:52:22;15.73;;;3.60;;
76053;SDS011;64752;48.870;9.082;2022-12-24T08:54:48;15.80;;;3.92;;
76053;SDS011;64752;48.870;9.082;2022-12-24T08:57:13;14.57;;;3.80;;
76053;SDS011;64752;48.870;9.082;2022-12-24T08:59:38;11.20;;;3.00;;
76053;SDS011;64752;48.870;9.082;2022-12-24T09:02:04;14.32;;;3.85;;
76053;SDS011;64752;48.870;9.082;2022-12-24T09:04:29;8.15;;;2.72;;
76053;SDS011;64752;48.870;9.082;2022-12-24T09:06:55;16.77;;;4.00;;
76053;SDS011;64752;48.870;9.082;2022-12-24T09:09:20;18.08;;;3.25;;
76053;SDS011;64752;48.870;9.082;2022-12-24T09:11:46;11.25;;;3.28;;
76053;SDS011;64752;48.870;9.082;2022-12-24T09:14:11;18.90;;;4.03;;
76053;SDS011;64752;48.870;9.082;2022-12-24T09:16:37;12.30;;;3.27;;
76053;SDS011;64752;48.870;9.082;2022-12-24T09:19:03;20.50;;;5.07;;
76053;SDS011;64752;48.870;9.082;2022-12-24T09:21:28;18.27;;;3.47;;
76053;SDS011;64752;48.870;9.082;2022-12-24T09:23:54;15.25;;;3.13;;
76053;SDS011;64752;48.870;9.082;2022-12-24T09:26:23;13.10;;;3.70;;
76053;SDS011;64752;48.870;9.082;2022-12-24T09:28:50;15.18;;;3.30;;
76053;SDS011;64752;48.870;9.082;2022-12-24T09:31:16;14.10;;;2.97;;
76053;SDS011;64752;48.870;9.082;2022-12-24T09:33:42;10.33;;;3.00;;
76053;SDS011;64752;48.870;9.082;2022-12-24T09:36:09;17.25;;;3.28;;
76053;SDS011;64752;48.870;9.082;2022-12-24T09:38:35;13.17;;;3.03;;
76053;SDS011;64752;48.870;9.082;2022-12-24T09:41:09;10.85;;;3.25;;
76053;SDS011;64752;48.870;9.082;2022-12-24T09:43:43;15.43;;;3.42;;
76053;SDS011;64752;48.870;9.082;2022-12-24T09:46:13;12.60;;;3.50;;
76053;SDS011;64752;48.870;9.082;2022-12-24T09:48:47;11.65;;;2.85;;
76053;SDS011;64752;48.870;9.082;2022-12-24T09:54:01;14.27;;;4.38;;
76053;SDS011;64752;48.870;9.082;2022-12-24T09:56:37;13.38;;;3.92;;
76053;SDS011;64752;48.870;9.082;2022-12-24T09:59:34;12.48;;;3.13;;
76053;SDS011;64752;48.870;9.082;2022-12-24T10:02:08;13.98;;;3.42;;
76053;SDS011;64752;48.870;9.082;2022-12-24T10:04:36;14.15;;;3.25;;
76053;SDS011;64752;48.870;9.082;2022-12-24T10:15:15;15.33;;;3.53;;
76053;SDS011;64752;48.870;9.082;2022-12-24T10:17:54;10.55;;;2.95;;
76053;SDS011;64752;48.870;9.082;2022-12-24T10:20:33;12.77;;;3.20;;
76053;SDS011;64752;48.870;9.082;2022-12-24T10:28:17;12.10;;;3.35;;
76053;SDS011;64752;48.870;9.082;2022-12-24T10:30:46;17.10;;;4.00;;
76053;SDS011;64752;48.870;9.082;2022-12-24T10:33:15;12.23;;;3.47;;
76053;SDS011;64752;48.870;9.082;2022-12-24T10:35:53;14.43;;;3.15;;
76053;SDS011;64752;48.870;9.082;2022-12-24T10:38:20;12.27;;;3.38;;
76053;SDS011;64752;48.870;9.082;2022-12-24T10:40:47;12.93;;;3.33;;
76053;SDS011;64752;48.870;9.082;2022-12-24T10:43:17;11.93;;;3.00;;
76053;SDS011;64752;48.870;9.082;2022-12-24T10:45:49;15.77;;;3.38;;
76053;SDS011;64752;48.870;9.082;2022-12-24T10:48:22;14.90;;;3.63;;
76053;SDS011;64752;48.870;9.082;2022-12-24T10:50:53;13.48;;;3.47;;
76053;SDS011;64752;48.870;9.082;2022-12-24T10:53:31;15.00;;;3.80;;
76053;SDS011;64752;48.870;9.082;2022-12-24T10:56:03;13.57;;;3.60;;
76053;SDS011;64752;48.870;9.082;2022-12-24T10:58:33;18.52;;;4.07;;
76053;SDS011;64752;48.870;9.082;2022-12-24T11:01:00;16.48;;;4.28;;
76053;SDS011;64752;48.870;9.082;2022-12-24T11:03:32;16.57;;;5.87;;
76053;SDS011;64752;48.870;9.082;2022-12-24T11:06:00;17.27;;;3.95;;
76053;SDS011;64752;48.870;9.082;2022-12-24T11:08:25;17.80;;;6.28;;
76053;SDS011;64752;48.870;9.082;2022-12-24T11:10:55;17.77;;;5.60;;
76053;SDS011;64752;48.870;9.082;2022-12-24T11:15:51;16.02;;;4.72;;
76053;SDS011;64752;48.870;9.082;2022-12-24T11:18:27;14.98;;;4.40;;
76053;SDS011;64752;48.870;9.082;2022-12-24T11:20:52;14.40;;;4.03;;
76053;SDS011;64752;48.870;9.082;2022-12-24T11:23:18;16.90;;;3.70;;
76053;SDS011;64752;48.870;9.082;2022-12-24T11:25:47;12.87;;;3.23;;
76053;SDS011;64752;48.870;9.082;2022-12-24T11:33:45;15.50;;;3.50;;
76053;SDS011;64752;48.870;9.082;2022-12-24T11:36:12;12.63;;;3.17;;
76053;SDS011;64752;48.870;9.082;2022-12-24T11:38:38;13.77;;;2.90;;
76053;SDS011;64752;48.870;9.082;2022-12-24T11:41:05;18.53;;;4.50;;
76053;SDS011;64752;48.870;9.082;2022-12-24T11:43:48;20.05;;;4.45;;
76053;SDS011;64752;48.870;9.082;2022-12-24T11:48:41;19.10;;;4.67;;
76053;SDS011;64752;48.870;9.082;2022-12-24T11:51:18;16.30;;;4.38;;
76053;SDS011;64752;48.870;9.082;2022-12-24T11:53:59;17.52;;;3.50;;
76053;SDS011;64752;48.870;9.082;2022-12-24T11:56:37;19.45;;;4.32;;
76053;SDS011;64752;48.870;9.082;2022-12-24T11:59:17;17.45;;;4.18;;
76053;SDS011;64752;48.870;9.082;2022-12-24T12:04:42;14.73;;;3.90;;
76053;SDS011;64752;48.870;9.082;2022-12-24T12:09:40;17.05;;;3.53;;
76053;SDS011;64752;48.870;9.082;2022-12-24T12:12:14;21.50;;;4.45;;
76053;SDS011;64752;48.870;9.082;2022-12-24T12:14:53;24.02;;;5.45;;
76053;SDS011;64752;48.870;9.082;2022-12-24T12:17:32;16.85;;;4.72;;
76053;SDS011;64752;48.870;9.082;2022-12-24T12:22:59;20.92;;;4.40;;
76053;SDS011;64752;48.870;9.082;2022-12-24T12:25:38;16.20;;;4.18;;
76053;SDS011;64752;48.870;9.082;2022-12-24T12:28:24;17.45;;;4.50;;
76053;SDS011;64752;48.870;9.082;2022-12-24T12:36:45;19.52;;;4.35;;
76053;SDS011;64752;48.870;9.082;2022-12-24T12:39:15;17.25;;;5.18;;
76053;SDS011;64752;48.870;9.082;2022-12-24T12:55:56;20.20;;;5.55;;
76053;SDS011;64752;48.870;9.082;2022-12-24T12:58:43;26.50;;;5.90;;
76053;SDS011;64752;48.870;9.082;2022-12-24T13:01:17;15.73;;;3.80;;
76053;SDS011;64752;48.870;9.082;2022-12-24T13:12:45;13.52;;;3.20;;
76053;SDS011;64752;48.870;9.082;2022-12-24T13:20:41;16.27;;;3.28;;
76053;SDS011;64752;48.870;9.082;2022-12-24T13:23:13;16.42;;;3.90;;
76053;SDS011;64752;48.870;9.082;2022-12-24T13:25:46;13.27;;;3.50;;
76053;SDS011;64752;48.870;9.082;2022-12-24T13:28:48;17.23;;;3.80;;
76053;SDS011;64752;48.870;9.082;2022-12-24T13:31:37;18.75;;;4.40;;
76053;SDS011;64752;48.870;9.082;2022-12-24T13:34:02;14.27;;;4.47;;
76053;SDS011;64752;48.870;9.082;2022-12-24T13:37:15;14.00;;;3.93;;
76053;SDS011;64752;48.870;9.082;2022-12-24T13:39:59;17.27;;;4.10;;
76053;SDS011;64752;48.870;9.082;2022-12-24T13:48:39;13.73;;;3.80;;
76053;SDS011;64752;48.870;9.082;2022-12-24T13:50:49;15.18;;;3.90;;
76053;SDS011;64752;48.870;9.082;2022-12-24T13:55:53;19.80;;;4.18;;
76053;SDS011;64752;48.870;9.082;2022-12-24T13:58:21;18.15;;;3.92;;
76053;SDS011;64752;48.870;9.082;2022-12-24T14:00:53;16.38;;;4.82;;
76053;SDS011;64752;48.870;9.082;2022-12-24T14:03:21;19.52;;;6.00;;
76053;SDS011;64752;48.870;9.082;2022-12-24T14:06:12;16.02;;;5.95;;
76053;SDS011;64752;48.870;9.082;2022-12-24T14:08:48;17.85;;;4.68;;
76053;SDS011;64752;48.870;9.082;2022-12-24T14:16:16;16.02;;;3.50;;
76053;SDS011;64752;48.870;9.082;2022-12-24T14:19:09;17.30;;;3.60;;
76053;SDS011;64752;48.870;9.082;2022-12-24T14:21:35;19.15;;;4.43;;
76053;SDS011;64752;48.870;9.082;2022-12-24T14:24:11;17.38;;;3.47;;
76053;SDS011;64752;48.870;9.082;2022-12-24T14:26:46;15.05;;;3.85;;
76053;SDS011;64752;48.870;9.082;2022-12-24T14:29:29;14.02;;;3.45;;
76053;SDS011;64752;48.870;9.082;2022-12-24T14:31:58;12.43;;;3.60;;
76053;SDS011;64752;48.870;9.082;2022-12-24T14:34:28;12.88;;;3.20;;
76053;SDS011;64752;48.870;9.082;2022-12-24T14:36:55;15.95;;;3.80;;
76053;SDS011;64752;48.870;9.082;2022-12-24T14:39:27;15.65;;;5.57;;
76053;SDS011;64752;48.870;9.082;2022-12-24T14:56:13;16.13;;;5.13;;
76053;SDS011;64752;48.870;9.082;2022-12-24T14:58:42;20.55;;;5.32;;
76053;SDS011;64752;48.870;9.082;2022-12-24T15:03:43;22.30;;;5.20;;
76053;SDS011;64752;48.870;9.082;2022-12-24T15:06:09;21.27;;;6.60;;
76053;SDS011;64752;48.870;9.082;2022-12-24T15:08:38;24.02;;;5.60;;
76053;SDS011;64752;48.870;9.082;2022-12-24T15:11:08;20.95;;;5.68;;
76053;SDS011;64752;48.870;9.082;2022-12-24T15:13:46;22.00;;;5.35;;
76053;SDS011;64752;48.870;9.082;2022-12-24T15:16:34;24.20;;;4.55;;
76053;SDS011;64752;48.870;9.082;2022-12-24T15:21:49;21.20;;;6.03;;
76053;SDS011;64752;48.870;9.082;2022-12-24T15:24:29;25.95;;;5.72;;
76053;SDS011;64752;48.870;9.082;2022-12-24T15:26:59;15.13;;;4.88;;
76053;SDS011;64752;48.870;9.082;2022-12-24T15:29:28;23.98;;;6.20;;
76053;SDS011;64752;48.870;9.082;2022-12-24T15:32:03;23.20;;;5.93;;
76053;SDS011;64752;48.870;9.082;2022-12-24T15:39:54;20.92;;;6.28;;
76053;SDS011;64752;48.870;9.082;2022-12-24T15:42:23;21.08;;;6.07;;
76053;SDS011;64752;48.870;9.082;2022-12-24T15:47:34;24.60;;;5.88;;
76053;SDS011;64752;48.870;9.082;2022-12-24T15:50:54;24.85;;;5.78;;
76053;SDS011;64752;48.870;9.082;2022-12-24T15:53:29;22.83;;;6.43;;
76053;SDS011;64752;48.870;9.082;2022-12-24T15:58:29;24.77;;;5.47;;
76053;SDS011;64752;48.870;9.082;2022-12-24T16:01:01;23.02;;;6.18;;
76053;SDS011;64752;48.870;9.082;2022-12-24T16:06:15;24.27;;;6.30;;
76053;SDS011;64752;48.870;9.082;2022-12-24T16:08:42;28.48;;;6.28;;
76053;SDS011;64752;48.870;9.082;2022-12-24T16:11:13;24.00;;;5.97;;
76053;SDS011;64752;48.870;9.082;2022-12-24T16:16:32;21.83;;;5.18;;
76053;SDS011;64752;48.870;9.082;2022-12-24T16:19:06;23.50;;;5.88;;
76053;SDS011;64752;48.870;9.082;2022-12-24T16:21:40;21.77;;;5.85;;
76053;SDS011;64752;48.870;9.082;2022-12-24T16:29:21;18.50;;;6.22;;
76053;SDS011;64752;48.870;9.082;2022-12-24T16:31:52;25.58;;;6.43;;
76053;SDS011;64752;48.870;9.082;2022-12-24T16:34:29;21.77;;;7.28;;
76053;SDS011;64752;48.870;9.082;2022-12-24T16:36:56;21.42;;;5.63;;
76053;SDS011;64752;48.870;9.082;2022-12-24T16:39:28;22.47;;;7.57;;
76053;SDS011;64752;48.870;9.082;2022-12-24T16:41:56;26.10;;;5.78;;
76053;SDS011;64752;48.870;9.082;2022-12-24T16:44:41;24.13;;;6.07;;
76053;SDS011;64752;48.870;9.082;2022-12-24T16:47:11;23.95;;;5.85;;
76053;SDS011;64752;48.870;9.082;2022-12-24T16:49:37;28.58;;;8.35;;
76053;SDS011;64752;48.870;9.082;2022-12-24T16:52:06;30.23;;;10.40;;
76053;SDS011;64752;48.870;9.082;2022-12-24T16:54:38;37.53;;;13.88;;
76053;SDS011;64752;48.870;9.082;2022-12-24T16:57:04;34.92;;;12.40;;
76053;SDS011;64752;48.870;9.082;2022-12-24T16:59:29;22.13;;;8.80;;
76053;SDS011;64752;48.870;9.082;2022-12-24T17:01:56;24.50;;;7.80;;
76053;SDS011;64752;48.870;9.082;2022-12-24T17:04:22;25.77;;;7.87;;
76053;SDS011;64752;48.870;9.082;2022-12-24T17:06:47;24.92;;;6.82;;
76053;SDS011;64752;48.870;9.082;2022-12-24T17:09:14;23.15;;;7.05;;
76053;SDS011;64752;48.870;9.082;2022-12-24T17:11:41;22.17;;;7.90;;
76053;SDS011;64752;48.870;9.082;2022-12-24T17:14:06;30.35;;;8.38;;
76053;SDS011;64752;48.870;9.082;2022-12-24T17:16:34;31.23;;;14.98;;
76053;SDS011;64752;48.870;9.082;2022-12-24T17:19:01;19.05;;;8.68;;
76053;SDS011;64752;48.870;9.082;2022-12-24T17:21:29;22.45;;;8.52;;
76053;SDS011;64752;48.870;9.082;2022-12-24T17:24:01;27.77;;;9.52;;
76053;SDS011;64752;48.870;9.082;2022-12-24T17:26:29;24.50;;;9.23;;
76053;SDS011;64752;48.870;9.082;2022-12-24T17:29:00;26.15;;;8.35;;
76053;SDS011;64752;48.870;9.082;2022-12-24T17:31:29;27.75;;;9.02;;
76053;SDS011;64752;48.870;9.082;2022-12-24T17:33:56;38.15;;;18.95;;
76053;SDS011;64752;48.870;9.082;2022-12-24T17:36:22;24.77;;;10.10;;
76053;SDS011;64752;48.870;9.082;2022-12-24T17:38:48;20.23;;;9.55;;
76053;SDS011;64752;48.870;9.082;2022-12-24T17:41:17;24.23;;;8.63;;